sensor_id;sensor_type;location;lat;lon;timestamp;P1;durP1;ratioP1;P2;durP2;ratioP2
4053;SDS011;2042;47.956;9.222;2023-08-30T00:00:31;21.23;;;13.43;;
4053;SDS011;2042;47.956;9.222;2023-08-30T00:02:57;20.53;;;14.07;;
4053;SDS011;2042;47.956;9.222;2023-08-30T00:05:22;22.00;;;14.23;;
4053;SDS011;2042;47.956;9.222;2023-08-30T00:07:48;22.90;;;14.80;;
4053;SDS011;2042;47.956;9.222;2023-08-30T00:10:14;26.83;;;15.70;;
4053;SDS011;2042;47.956;9.222;2023-08-30T00:12:39;26.53;;;16.63;;
4053;SDS011;2042;47.956;9.222;2023-08-30T00:15:05;25.20;;;13.93;;
4053;SDS011;2042;47.956;9.222;2023-08-30T00:17:31;31.20;;;15.50;;
4053;SDS011;2042;47.956;9.222;2023-08-30T00:19:57;24.13;;;14.87;;
4053;SDS011;2042;47.956;9.222;2023-08-30T00:22:23;27.73;;;17.23;;
4053;SDS011;2042;47.956;9.222;2023-08-30T00:24:49;35.67;;;17.93;;
4053;SDS011;2042;47.956;9.222;2023-08-30T00:27:14;31.83;;;18.07;;
4053;SDS011;2042;47.956;9.222;2023-08-30T00:29:40;33.07;;;18.07;;
4053;SDS011;2042;47.956;9.222;2023-08-30T00:32:06;29.00;;;17.60;;
4053;SDS011;2042;47.956;9.222;2023-08-30T00:34:32;26.97;;;16.90;;
4053;SDS011;2042;47.956;9.222;2023-08-30T00:36:58;30.40;;;16.03;;
4053;SDS011;2042;47.956;9.222;2023-08-30T00:39:24;29.90;;;18.60;;
4053;SDS011;2042;47.956;9.222;2023-08-30T00:41:49;33.30;;;16.77;;
4053;SDS011;2042;47.956;9.222;2023-08-30T00:44:15;35.40;;;19.23;;
4053;SDS011;2042;47.956;9.222;2023-08-30T00:46:41;29.87;;;17.40;;
4053;SDS011;2042;47.956;9.222;2023-08-30T00:49:07;35.80;;;19.50;;
4053;SDS011;2042;47.956;9.222;2023-08-30T00:51:33;31.10;;;16.80;;
4053;SDS011;2042;47.956;9.222;2023-08-30T00:54:01;31.20;;;17.47;;
4053;SDS011;2042;47.956;9.222;2023-08-30T00:56:27;26.87;;;16.10;;
4053;SDS011;2042;47.956;9.222;2023-08-30T00:58:53;34.47;;;18.27;;
4053;SDS011;2042;47.956;9.222;2023-08-30T01:01:20;28.63;;;16.50;;
4053;SDS011;2042;47.956;9.222;2023-08-30T01:03:46;34.17;;;17.03;;
4053;SDS011;2042;47.956;9.222;2023-08-30T01:06:11;27.83;;;16.50;;
4053;SDS011;2042;47.956;9.222;2023-08-30T01:08:38;33.10;;;18.20;;
4053;SDS011;2042;47.956;9.222;2023-08-30T01:13:40;27.53;;;16.17;;
4053;SDS011;2042;47.956;9.222;2023-08-30T01:16:11;24.17;;;14.00;;
4053;SDS011;2042;47.956;9.222;2023-08-30T01:18:38;21.73;;;14.03;;
4053;SDS011;2042;47.956;9.222;2023-08-30T01:21:04;25.77;;;14.00;;
4053;SDS011;2042;47.956;9.222;2023-08-30T01:26:23;21.40;;;14.30;;
4053;SDS011;2042;47.956;9.222;2023-08-30T01:28:52;19.93;;;13.23;;
4053;SDS011;2042;47.956;9.222;2023-08-30T01:31:21;20.57;;;13.00;;
4053;SDS011;2042;47.956;9.222;2023-08-30T01:33:48;19.43;;;11.87;;
4053;SDS011;2042;47.956;9.222;2023-08-30T01:36:15;25.40;;;13.47;;
4053;SDS011;2042;47.956;9.222;2023-08-30T01:38:41;23.60;;;14.60;;
4053;SDS011;2042;47.956;9.222;2023-08-30T01:41:07;20.77;;;13.20;;
4053;SDS011;2042;47.956;9.222;2023-08-30T01:43:33;23.10;;;13.30;;
4053;SDS011;2042;47.956;9.222;2023-08-30T01:46:00;21.47;;;13.43;;
4053;SDS011;2042;47.956;9.222;2023-08-30T01:48:27;20.47;;;13.30;;
4053;SDS011;2042;47.956;9.222;2023-08-30T01:50:54;23.97;;;13.17;;
4053;SDS011;2042;47.956;9.222;2023-08-30T01:53:23;19.00;;;12.13;;
4053;SDS011;2042;47.956;9.222;2023-08-30T01:55:50;20.90;;;12.93;;
4053;SDS011;2042;47.956;9.222;2023-08-30T01:58:15;26.87;;;14.30;;
4053;SDS011;2042;47.956;9.222;2023-08-30T02:00:41;22.07;;;13.60;;
4053;SDS011;2042;47.956;9.222;2023-08-30T02:03:10;26.13;;;13.67;;
4053;SDS011;2042;47.956;9.222;2023-08-30T02:05:37;23.13;;;14.80;;
4053;SDS011;2042;47.956;9.222;2023-08-30T02:08:16;24.00;;;14.30;;
4053;SDS011;2042;47.956;9.222;2023-08-30T02:10:45;24.30;;;14.30;;
4053;SDS011;2042;47.956;9.222;2023-08-30T02:13:21;22.03;;;13.50;;
4053;SDS011;2042;47.956;9.222;2023-08-30T02:15:56;16.77;;;11.40;;
4053;SDS011;2042;47.956;9.222;2023-08-30T02:18:25;25.50;;;14.10;;
4053;SDS011;2042;47.956;9.222;2023-08-30T02:20:51;24.43;;;14.17;;
4053;SDS011;2042;47.956;9.222;2023-08-30T02:23:17;27.80;;;14.40;;
4053;SDS011;2042;47.956;9.222;2023-08-30T02:25:43;22.20;;;13.60;;
4053;SDS011;2042;47.956;9.222;2023-08-30T02:28:08;20.17;;;13.93;;
4053;SDS011;2042;47.956;9.222;2023-08-30T02:30:34;23.73;;;14.30;;
4053;SDS011;2042;47.956;9.222;2023-08-30T02:33:00;26.67;;;14.53;;
4053;SDS011;2042;47.956;9.222;2023-08-30T02:35:26;21.00;;;13.27;;
4053;SDS011;2042;47.956;9.222;2023-08-30T02:37:51;23.97;;;13.73;;
4053;SDS011;2042;47.956;9.222;2023-08-30T02:40:17;19.33;;;14.60;;
4053;SDS011;2042;47.956;9.222;2023-08-30T02:42:42;23.83;;;14.60;;
4053;SDS011;2042;47.956;9.222;2023-08-30T02:45:08;25.20;;;14.23;;
4053;SDS011;2042;47.956;9.222;2023-08-30T02:47:34;20.20;;;15.47;;
4053;SDS011;2042;47.956;9.222;2023-08-30T02:50:00;22.30;;;14.67;;
4053;SDS011;2042;47.956;9.222;2023-08-30T02:52:26;23.97;;;14.37;;
4053;SDS011;2042;47.956;9.222;2023-08-30T02:54:52;25.10;;;15.80;;
4053;SDS011;2042;47.956;9.222;2023-08-30T02:57:17;20.80;;;12.80;;
4053;SDS011;2042;47.956;9.222;2023-08-30T02:59:43;25.40;;;13.67;;
4053;SDS011;2042;47.956;9.222;2023-08-30T03:02:08;27.30;;;15.10;;
4053;SDS011;2042;47.956;9.222;2023-08-30T03:04:34;24.20;;;14.83;;
4053;SDS011;2042;47.956;9.222;2023-08-30T03:07:00;21.17;;;12.90;;
4053;SDS011;2042;47.956;9.222;2023-08-30T03:09:25;30.10;;;16.90;;
4053;SDS011;2042;47.956;9.222;2023-08-30T03:11:51;25.83;;;14.00;;
4053;SDS011;2042;47.956;9.222;2023-08-30T03:14:17;20.73;;;13.43;;
4053;SDS011;2042;47.956;9.222;2023-08-30T03:16:43;22.43;;;12.67;;
4053;SDS011;2042;47.956;9.222;2023-08-30T03:19:10;20.37;;;13.10;;
4053;SDS011;2042;47.956;9.222;2023-08-30T03:21:35;23.47;;;12.17;;
4053;SDS011;2042;47.956;9.222;2023-08-30T03:24:01;22.57;;;13.57;;
4053;SDS011;2042;47.956;9.222;2023-08-30T03:26:27;23.30;;;13.43;;
4053;SDS011;2042;47.956;9.222;2023-08-30T03:28:52;21.63;;;13.83;;
4053;SDS011;2042;47.956;9.222;2023-08-30T03:31:18;23.77;;;13.67;;
4053;SDS011;2042;47.956;9.222;2023-08-30T03:33:45;22.43;;;12.80;;
4053;SDS011;2042;47.956;9.222;2023-08-30T03:36:15;23.63;;;14.17;;
4053;SDS011;2042;47.956;9.222;2023-08-30T03:38:42;24.10;;;15.50;;
4053;SDS011;2042;47.956;9.222;2023-08-30T03:41:08;26.97;;;14.57;;
4053;SDS011;2042;47.956;9.222;2023-08-30T03:43:35;22.90;;;14.50;;
4053;SDS011;2042;47.956;9.222;2023-08-30T03:46:01;25.13;;;14.53;;
4053;SDS011;2042;47.956;9.222;2023-08-30T03:48:28;20.10;;;13.70;;
4053;SDS011;2042;47.956;9.222;2023-08-30T03:50:54;25.80;;;14.43;;
4053;SDS011;2042;47.956;9.222;2023-08-30T03:53:20;22.00;;;12.50;;
4053;SDS011;2042;47.956;9.222;2023-08-30T03:55:46;20.10;;;11.87;;
4053;SDS011;2042;47.956;9.222;2023-08-30T03:58:11;22.10;;;14.60;;
4053;SDS011;2042;47.956;9.222;2023-08-30T04:00:37;25.53;;;14.90;;
4053;SDS011;2042;47.956;9.222;2023-08-30T04:03:04;21.60;;;12.90;;
4053;SDS011;2042;47.956;9.222;2023-08-30T04:05:35;30.63;;;13.90;;
4053;SDS011;2042;47.956;9.222;2023-08-30T04:08:02;35.47;;;18.67;;
4053;SDS011;2042;47.956;9.222;2023-08-30T04:10:28;24.07;;;14.70;;
4053;SDS011;2042;47.956;9.222;2023-08-30T04:12:54;23.93;;;13.10;;
4053;SDS011;2042;47.956;9.222;2023-08-30T04:15:20;24.37;;;15.13;;
4053;SDS011;2042;47.956;9.222;2023-08-30T04:17:46;26.90;;;12.80;;
4053;SDS011;2042;47.956;9.222;2023-08-30T04:20:11;22.77;;;13.00;;
4053;SDS011;2042;47.956;9.222;2023-08-30T04:22:37;25.23;;;13.00;;
4053;SDS011;2042;47.956;9.222;2023-08-30T04:25:03;21.17;;;12.33;;
4053;SDS011;2042;47.956;9.222;2023-08-30T04:27:29;22.97;;;13.10;;
4053;SDS011;2042;47.956;9.222;2023-08-30T04:29:55;21.83;;;12.60;;
4053;SDS011;2042;47.956;9.222;2023-08-30T04:32:20;26.50;;;15.20;;
4053;SDS011;2042;47.956;9.222;2023-08-30T04:34:46;28.50;;;17.30;;
4053;SDS011;2042;47.956;9.222;2023-08-30T04:37:12;24.40;;;12.67;;
4053;SDS011;2042;47.956;9.222;2023-08-30T04:39:38;23.40;;;13.93;;
4053;SDS011;2042;47.956;9.222;2023-08-30T04:42:05;20.57;;;13.80;;
4053;SDS011;2042;47.956;9.222;2023-08-30T04:44:30;22.83;;;14.07;;
4053;SDS011;2042;47.956;9.222;2023-08-30T04:46:57;26.43;;;14.17;;
4053;SDS011;2042;47.956;9.222;2023-08-30T04:49:23;26.87;;;13.77;;
4053;SDS011;2042;47.956;9.222;2023-08-30T04:51:52;25.37;;;13.90;;
4053;SDS011;2042;47.956;9.222;2023-08-30T04:54:17;24.23;;;14.63;;
4053;SDS011;2042;47.956;9.222;2023-08-30T04:56:43;23.90;;;13.03;;
4053;SDS011;2042;47.956;9.222;2023-08-30T04:59:08;27.90;;;15.40;;
4053;SDS011;2042;47.956;9.222;2023-08-30T05:01:34;25.20;;;13.77;;
4053;SDS011;2042;47.956;9.222;2023-08-30T05:04:00;24.67;;;15.87;;
4053;SDS011;2042;47.956;9.222;2023-08-30T05:06:26;29.07;;;14.93;;
4053;SDS011;2042;47.956;9.222;2023-08-30T05:08:51;25.03;;;13.33;;
4053;SDS011;2042;47.956;9.222;2023-08-30T05:11:17;27.13;;;14.93;;
4053;SDS011;2042;47.956;9.222;2023-08-30T05:13:43;29.90;;;14.90;;
4053;SDS011;2042;47.956;9.222;2023-08-30T05:16:08;27.87;;;15.67;;
4053;SDS011;2042;47.956;9.222;2023-08-30T05:18:34;25.90;;;16.60;;
4053;SDS011;2042;47.956;9.222;2023-08-30T05:20:59;26.03;;;13.50;;
4053;SDS011;2042;47.956;9.222;2023-08-30T05:23:28;24.47;;;13.60;;
4053;SDS011;2042;47.956;9.222;2023-08-30T05:25:54;26.53;;;16.83;;
4053;SDS011;2042;47.956;9.222;2023-08-30T05:28:19;27.53;;;14.90;;
4053;SDS011;2042;47.956;9.222;2023-08-30T05:30:45;27.67;;;14.93;;
4053;SDS011;2042;47.956;9.222;2023-08-30T05:33:11;21.67;;;13.70;;
4053;SDS011;2042;47.956;9.222;2023-08-30T05:35:36;29.33;;;16.50;;
4053;SDS011;2042;47.956;9.222;2023-08-30T05:38:02;27.77;;;14.57;;
4053;SDS011;2042;47.956;9.222;2023-08-30T05:40:27;26.50;;;14.53;;
4053;SDS011;2042;47.956;9.222;2023-08-30T05:42:53;31.00;;;16.93;;
4053;SDS011;2042;47.956;9.222;2023-08-30T05:45:20;24.50;;;13.80;;
4053;SDS011;2042;47.956;9.222;2023-08-30T05:47:46;29.30;;;15.57;;
4053;SDS011;2042;47.956;9.222;2023-08-30T05:50:13;39.40;;;15.87;;
4053;SDS011;2042;47.956;9.222;2023-08-30T05:52:38;21.90;;;13.67;;
4053;SDS011;2042;47.956;9.222;2023-08-30T05:55:06;29.90;;;14.57;;
4053;SDS011;2042;47.956;9.222;2023-08-30T05:57:33;24.10;;;15.80;;
4053;SDS011;2042;47.956;9.222;2023-08-30T06:00:00;23.27;;;14.63;;
4053;SDS011;2042;47.956;9.222;2023-08-30T06:02:26;22.13;;;13.97;;
4053;SDS011;2042;47.956;9.222;2023-08-30T06:04:52;25.03;;;15.73;;
4053;SDS011;2042;47.956;9.222;2023-08-30T06:07:17;27.33;;;14.93;;
4053;SDS011;2042;47.956;9.222;2023-08-30T06:09:43;24.60;;;15.40;;
4053;SDS011;2042;47.956;9.222;2023-08-30T06:12:09;19.60;;;13.30;;
4053;SDS011;2042;47.956;9.222;2023-08-30T06:14:35;24.90;;;13.93;;
4053;SDS011;2042;47.956;9.222;2023-08-30T06:17:01;22.47;;;12.80;;
4053;SDS011;2042;47.956;9.222;2023-08-30T06:19:27;23.17;;;15.30;;
4053;SDS011;2042;47.956;9.222;2023-08-30T06:21:53;20.87;;;13.30;;
4053;SDS011;2042;47.956;9.222;2023-08-30T06:24:18;21.30;;;14.18;;
4053;SDS011;2042;47.956;9.222;2023-08-30T06:26:44;22.30;;;13.90;;
4053;SDS011;2042;47.956;9.222;2023-08-30T06:29:09;17.83;;;12.07;;
4053;SDS011;2042;47.956;9.222;2023-08-30T06:31:35;18.63;;;12.43;;
4053;SDS011;2042;47.956;9.222;2023-08-30T06:34:02;16.37;;;12.27;;
4053;SDS011;2042;47.956;9.222;2023-08-30T06:36:27;17.10;;;10.70;;
4053;SDS011;2042;47.956;9.222;2023-08-30T06:38:54;17.53;;;11.90;;
4053;SDS011;2042;47.956;9.222;2023-08-30T06:41:19;16.27;;;11.10;;
4053;SDS011;2042;47.956;9.222;2023-08-30T06:43:45;19.93;;;12.50;;
4053;SDS011;2042;47.956;9.222;2023-08-30T06:46:11;19.03;;;11.03;;
4053;SDS011;2042;47.956;9.222;2023-08-30T06:48:37;16.95;;;13.55;;
4053;SDS011;2042;47.956;9.222;2023-08-30T06:51:02;15.20;;;11.40;;
4053;SDS011;2042;47.956;9.222;2023-08-30T06:53:28;12.27;;;9.23;;
4053;SDS011;2042;47.956;9.222;2023-08-30T06:56:00;13.30;;;8.93;;
4053;SDS011;2042;47.956;9.222;2023-08-30T06:58:26;12.27;;;9.73;;
4053;SDS011;2042;47.956;9.222;2023-08-30T07:00:52;13.73;;;9.63;;
4053;SDS011;2042;47.956;9.222;2023-08-30T07:03:18;12.80;;;9.67;;
4053;SDS011;2042;47.956;9.222;2023-08-30T07:05:44;11.77;;;9.70;;
4053;SDS011;2042;47.956;9.222;2023-08-30T07:08:09;14.27;;;9.73;;
4053;SDS011;2042;47.956;9.222;2023-08-30T07:10:35;13.17;;;8.80;;
4053;SDS011;2042;47.956;9.222;2023-08-30T07:13:01;11.83;;;8.10;;
4053;SDS011;2042;47.956;9.222;2023-08-30T07:15:27;11.50;;;8.90;;
4053;SDS011;2042;47.956;9.222;2023-08-30T07:17:53;11.33;;;9.03;;
4053;SDS011;2042;47.956;9.222;2023-08-30T07:20:19;10.10;;;8.53;;
4053;SDS011;2042;47.956;9.222;2023-08-30T07:22:44;9.93;;;8.43;;
4053;SDS011;2042;47.956;9.222;2023-08-30T07:25:10;9.03;;;8.13;;
4053;SDS011;2042;47.956;9.222;2023-08-30T07:27:37;13.40;;;8.20;;
4053;SDS011;2042;47.956;9.222;2023-08-30T07:30:02;12.90;;;8.63;;
4053;SDS011;2042;47.956;9.222;2023-08-30T07:32:29;13.00;;;8.33;;
4053;SDS011;2042;47.956;9.222;2023-08-30T07:34:55;9.70;;;8.00;;
4053;SDS011;2042;47.956;9.222;2023-08-30T07:37:21;10.60;;;7.20;;
4053;SDS011;2042;47.956;9.222;2023-08-30T07:39:47;7.93;;;7.07;;
4053;SDS011;2042;47.956;9.222;2023-08-30T07:42:13;9.90;;;8.17;;
4053;SDS011;2042;47.956;9.222;2023-08-30T07:44:40;10.97;;;9.37;;
4053;SDS011;2042;47.956;9.222;2023-08-30T07:47:06;9.57;;;8.00;;
4053;SDS011;2042;47.956;9.222;2023-08-30T07:49:32;8.73;;;7.70;;
4053;SDS011;2042;47.956;9.222;2023-08-30T07:51:57;6.93;;;6.23;;
4053;SDS011;2042;47.956;9.222;2023-08-30T07:54:23;10.27;;;7.10;;
4053;SDS011;2042;47.956;9.222;2023-08-30T07:56:49;8.00;;;7.20;;
4053;SDS011;2042;47.956;9.222;2023-08-30T07:59:14;8.57;;;7.03;;
4053;SDS011;2042;47.956;9.222;2023-08-30T08:01:40;8.27;;;7.00;;
4053;SDS011;2042;47.956;9.222;2023-08-30T08:04:05;8.40;;;6.67;;
4053;SDS011;2042;47.956;9.222;2023-08-30T08:06:31;8.10;;;7.30;;
4053;SDS011;2042;47.956;9.222;2023-08-30T08:08:57;6.33;;;5.70;;
4053;SDS011;2042;47.956;9.222;2023-08-30T08:11:23;6.57;;;5.63;;
4053;SDS011;2042;47.956;9.222;2023-08-30T08:13:48;8.47;;;6.20;;
4053;SDS011;2042;47.956;9.222;2023-08-30T08:16:14;8.27;;;7.23;;
4053;SDS011;2042;47.956;9.222;2023-08-30T08:18:39;6.53;;;5.90;;
4053;SDS011;2042;47.956;9.222;2023-08-30T08:21:05;7.10;;;6.50;;
4053;SDS011;2042;47.956;9.222;2023-08-30T08:23:31;6.73;;;6.13;;
4053;SDS011;2042;47.956;9.222;2023-08-30T08:25:57;7.13;;;6.43;;
4053;SDS011;2042;47.956;9.222;2023-08-30T08:28:23;8.23;;;7.37;;
4053;SDS011;2042;47.956;9.222;2023-08-30T08:30:49;7.97;;;6.43;;
4053;SDS011;2042;47.956;9.222;2023-08-30T08:33:16;8.50;;;5.83;;
4053;SDS011;2042;47.956;9.222;2023-08-30T08:35:43;6.93;;;5.67;;
4053;SDS011;2042;47.956;9.222;2023-08-30T08:38:09;5.83;;;5.33;;
4053;SDS011;2042;47.956;9.222;2023-08-30T08:40:36;5.73;;;5.23;;
4053;SDS011;2042;47.956;9.222;2023-08-30T08:43:04;6.50;;;5.87;;
4053;SDS011;2042;47.956;9.222;2023-08-30T08:45:31;6.07;;;5.57;;
4053;SDS011;2042;47.956;9.222;2023-08-30T08:48:00;5.10;;;4.70;;
4053;SDS011;2042;47.956;9.222;2023-08-30T09:02:39;4.23;;;3.60;;
4053;SDS011;2042;47.956;9.222;2023-08-30T09:05:07;4.80;;;4.40;;
4053;SDS011;2042;47.956;9.222;2023-08-30T09:07:33;5.83;;;5.33;;
4053;SDS011;2042;47.956;9.222;2023-08-30T09:10:01;5.17;;;4.77;;
4053;SDS011;2042;47.956;9.222;2023-08-30T09:12:26;5.70;;;5.20;;
4053;SDS011;2042;47.956;9.222;2023-08-30T09:14:53;5.77;;;5.30;;
4053;SDS011;2042;47.956;9.222;2023-08-30T09:17:20;6.60;;;6.00;;
4053;SDS011;2042;47.956;9.222;2023-08-30T09:19:46;6.90;;;6.20;;
4053;SDS011;2042;47.956;9.222;2023-08-30T09:22:11;5.67;;;5.20;;
4053;SDS011;2042;47.956;9.222;2023-08-30T09:24:37;5.77;;;5.27;;
4053;SDS011;2042;47.956;9.222;2023-08-30T09:27:04;5.70;;;5.30;;
4053;SDS011;2042;47.956;9.222;2023-08-30T09:29:30;5.10;;;4.70;;
4053;SDS011;2042;47.956;9.222;2023-08-30T09:32:00;5.87;;;5.30;;
4053;SDS011;2042;47.956;9.222;2023-08-30T09:34:26;4.73;;;4.33;;
4053;SDS011;2042;47.956;9.222;2023-08-30T09:36:52;5.23;;;4.73;;
4053;SDS011;2042;47.956;9.222;2023-08-30T09:39:18;5.57;;;5.17;;
4053;SDS011;2042;47.956;9.222;2023-08-30T09:41:49;7.40;;;5.70;;
4053;SDS011;2042;47.956;9.222;2023-08-30T09:44:18;6.33;;;5.83;;
4053;SDS011;2042;47.956;9.222;2023-08-30T09:46:54;5.10;;;4.70;;
4053;SDS011;2042;47.956;9.222;2023-08-30T09:49:22;6.80;;;6.20;;
4053;SDS011;2042;47.956;9.222;2023-08-30T09:51:50;5.33;;;4.93;;
4053;SDS011;2042;47.956;9.222;2023-08-30T09:54:23;6.00;;;5.37;;
4053;SDS011;2042;47.956;9.222;2023-08-30T09:56:50;4.77;;;4.37;;
4053;SDS011;2042;47.956;9.222;2023-08-30T09:59:20;4.40;;;3.97;;
4053;SDS011;2042;47.956;9.222;2023-08-30T10:01:47;4.90;;;4.50;;
4053;SDS011;2042;47.956;9.222;2023-08-30T10:04:13;5.10;;;4.70;;
4053;SDS011;2042;47.956;9.222;2023-08-30T10:06:40;6.00;;;5.40;;
4053;SDS011;2042;47.956;9.222;2023-08-30T10:09:07;4.43;;;4.13;;
4053;SDS011;2042;47.956;9.222;2023-08-30T10:11:37;4.27;;;3.90;;
4053;SDS011;2042;47.956;9.222;2023-08-30T10:14:03;5.20;;;4.10;;
4053;SDS011;2042;47.956;9.222;2023-08-30T10:16:30;4.27;;;3.97;;
4053;SDS011;2042;47.956;9.222;2023-08-30T10:19:24;3.40;;;3.10;;
4053;SDS011;2042;47.956;9.222;2023-08-30T10:22:01;3.57;;;3.27;;
4053;SDS011;2042;47.956;9.222;2023-08-30T10:24:37;3.63;;;3.43;;
4053;SDS011;2042;47.956;9.222;2023-08-30T10:27:06;3.77;;;2.70;;
4053;SDS011;2042;47.956;9.222;2023-08-30T10:29:35;3.67;;;3.37;;
4053;SDS011;2042;47.956;9.222;2023-08-30T10:32:04;3.33;;;3.07;;
4053;SDS011;2042;47.956;9.222;2023-08-30T10:34:33;4.15;;;3.85;;
4053;SDS011;2042;47.956;9.222;2023-08-30T10:44:25;4.40;;;4.00;;
4053;SDS011;2042;47.956;9.222;2023-08-30T10:46:54;4.20;;;3.90;;
4053;SDS011;2042;47.956;9.222;2023-08-30T10:49:20;3.47;;;3.17;;
4053;SDS011;2042;47.956;9.222;2023-08-30T10:51:56;4.20;;;3.90;;
4053;SDS011;2042;47.956;9.222;2023-08-30T10:59:23;2.87;;;2.57;;
4053;SDS011;2042;47.956;9.222;2023-08-30T11:11:37;3.83;;;3.53;;
4053;SDS011;2042;47.956;9.222;2023-08-30T11:14:03;3.20;;;3.00;;
4053;SDS011;2042;47.956;9.222;2023-08-30T11:16:31;3.30;;;3.10;;
4053;SDS011;2042;47.956;9.222;2023-08-30T11:18:57;2.80;;;2.60;;
4053;SDS011;2042;47.956;9.222;2023-08-30T11:21:23;2.40;;;2.20;;
4053;SDS011;2042;47.956;9.222;2023-08-30T11:23:49;3.10;;;2.90;;
4053;SDS011;2042;47.956;9.222;2023-08-30T11:26:16;2.43;;;2.23;;
4053;SDS011;2042;47.956;9.222;2023-08-30T11:28:42;2.50;;;2.30;;
4053;SDS011;2042;47.956;9.222;2023-08-30T11:31:19;2.30;;;2.20;;
4053;SDS011;2042;47.956;9.222;2023-08-30T11:33:53;3.60;;;2.77;;
4053;SDS011;2042;47.956;9.222;2023-08-30T11:36:21;2.37;;;2.20;;
4053;SDS011;2042;47.956;9.222;2023-08-30T11:38:49;2.17;;;1.97;;
4053;SDS011;2042;47.956;9.222;2023-08-30T11:41:15;2.70;;;2.50;;
4053;SDS011;2042;47.956;9.222;2023-08-30T11:43:42;3.00;;;2.37;;
4053;SDS011;2042;47.956;9.222;2023-08-30T11:46:08;2.57;;;2.37;;
4053;SDS011;2042;47.956;9.222;2023-08-30T11:48:34;2.33;;;2.13;;
4053;SDS011;2042;47.956;9.222;2023-08-30T11:51:01;3.10;;;2.90;;
4053;SDS011;2042;47.956;9.222;2023-08-30T11:53:27;2.53;;;2.33;;
4053;SDS011;2042;47.956;9.222;2023-08-30T11:55:53;2.93;;;2.73;;
4053;SDS011;2042;47.956;9.222;2023-08-30T11:58:19;3.33;;;3.10;;
4053;SDS011;2042;47.956;9.222;2023-08-30T12:00:45;2.77;;;2.10;;
4053;SDS011;2042;47.956;9.222;2023-08-30T12:03:15;2.70;;;2.50;;
4053;SDS011;2042;47.956;9.222;2023-08-30T12:05:44;2.10;;;2.00;;
4053;SDS011;2042;47.956;9.222;2023-08-30T12:08:24;1.93;;;1.83;;
4053;SDS011;2042;47.956;9.222;2023-08-30T12:10:51;1.70;;;1.60;;
4053;SDS011;2042;47.956;9.222;2023-08-30T12:13:24;2.13;;;2.03;;
4053;SDS011;2042;47.956;9.222;2023-08-30T12:15:53;2.30;;;2.07;;
4053;SDS011;2042;47.956;9.222;2023-08-30T12:18:23;2.00;;;1.90;;
4053;SDS011;2042;47.956;9.222;2023-08-30T12:20:55;2.50;;;2.30;;
4053;SDS011;2042;47.956;9.222;2023-08-30T12:23:26;1.67;;;1.57;;
4053;SDS011;2042;47.956;9.222;2023-08-30T12:26:11;2.17;;;1.97;;
4053;SDS011;2042;47.956;9.222;2023-08-30T12:28:38;1.87;;;1.77;;
4053;SDS011;2042;47.956;9.222;2023-08-30T12:31:06;1.50;;;1.40;;
4053;SDS011;2042;47.956;9.222;2023-08-30T12:33:32;2.03;;;1.50;;
4053;SDS011;2042;47.956;9.222;2023-08-30T12:35:59;1.70;;;1.60;;
4053;SDS011;2042;47.956;9.222;2023-08-30T12:38:25;1.73;;;1.63;;
4053;SDS011;2042;47.956;9.222;2023-08-30T12:40:51;3.03;;;2.77;;
4053;SDS011;2042;47.956;9.222;2023-08-30T12:43:21;2.60;;;2.40;;
4053;SDS011;2042;47.956;9.222;2023-08-30T12:45:47;2.10;;;2.00;;
4053;SDS011;2042;47.956;9.222;2023-08-30T12:48:14;2.73;;;2.53;;
4053;SDS011;2042;47.956;9.222;2023-08-30T12:50:45;2.70;;;2.50;;
4053;SDS011;2042;47.956;9.222;2023-08-30T12:53:12;2.40;;;2.17;;
4053;SDS011;2042;47.956;9.222;2023-08-30T12:55:38;2.80;;;2.20;;
4053;SDS011;2042;47.956;9.222;2023-08-30T12:58:06;3.53;;;2.40;;
4053;SDS011;2042;47.956;9.222;2023-08-30T13:00:32;2.10;;;1.90;;
4053;SDS011;2042;47.956;9.222;2023-08-30T13:02:59;3.20;;;2.23;;
4053;SDS011;2042;47.956;9.222;2023-08-30T13:05:25;4.97;;;2.50;;
4053;SDS011;2042;47.956;9.222;2023-08-30T13:07:51;11.23;;;2.57;;
4053;SDS011;2042;47.956;9.222;2023-08-30T13:10:16;2.13;;;1.67;;
4053;SDS011;2042;47.956;9.222;2023-08-30T13:12:43;2.03;;;1.93;;
4053;SDS011;2042;47.956;9.222;2023-08-30T13:15:09;1.90;;;1.80;;
4053;SDS011;2042;47.956;9.222;2023-08-30T13:17:35;2.93;;;2.03;;
4053;SDS011;2042;47.956;9.222;2023-08-30T13:20:01;2.20;;;2.00;;
4053;SDS011;2042;47.956;9.222;2023-08-30T13:22:27;1.80;;;1.70;;
4053;SDS011;2042;47.956;9.222;2023-08-30T13:24:53;2.47;;;2.27;;
4053;SDS011;2042;47.956;9.222;2023-08-30T13:27:19;2.37;;;2.17;;
4053;SDS011;2042;47.956;9.222;2023-08-30T13:29:45;1.70;;;1.60;;
4053;SDS011;2042;47.956;9.222;2023-08-30T13:32:11;2.23;;;2.13;;
4053;SDS011;2042;47.956;9.222;2023-08-30T13:34:37;2.43;;;2.23;;
4053;SDS011;2042;47.956;9.222;2023-08-30T13:37:03;2.47;;;2.27;;
4053;SDS011;2042;47.956;9.222;2023-08-30T13:39:29;2.40;;;2.20;;
4053;SDS011;2042;47.956;9.222;2023-08-30T13:41:55;2.30;;;2.10;;
4053;SDS011;2042;47.956;9.222;2023-08-30T13:44:21;3.10;;;2.20;;
4053;SDS011;2042;47.956;9.222;2023-08-30T13:46:47;2.10;;;1.83;;
4053;SDS011;2042;47.956;9.222;2023-08-30T13:49:14;2.47;;;2.27;;
4053;SDS011;2042;47.956;9.222;2023-08-30T13:51:40;2.37;;;2.17;;
4053;SDS011;2042;47.956;9.222;2023-08-30T13:54:06;2.20;;;2.10;;
4053;SDS011;2042;47.956;9.222;2023-08-30T13:56:33;2.20;;;2.00;;
4053;SDS011;2042;47.956;9.222;2023-08-30T13:58:58;3.03;;;2.20;;
4053;SDS011;2042;47.956;9.222;2023-08-30T14:01:24;2.30;;;2.07;;
4053;SDS011;2042;47.956;9.222;2023-08-30T14:03:50;2.20;;;2.10;;
4053;SDS011;2042;47.956;9.222;2023-08-30T14:06:16;2.47;;;2.27;;
4053;SDS011;2042;47.956;9.222;2023-08-30T14:08:42;3.33;;;2.60;;
4053;SDS011;2042;47.956;9.222;2023-08-30T14:11:08;2.20;;;2.10;;
4053;SDS011;2042;47.956;9.222;2023-08-30T14:13:34;3.03;;;2.80;;
4053;SDS011;2042;47.956;9.222;2023-08-30T14:16:00;3.97;;;2.50;;
4053;SDS011;2042;47.956;9.222;2023-08-30T14:18:26;2.80;;;2.60;;
4053;SDS011;2042;47.956;9.222;2023-08-30T14:20:55;3.00;;;2.80;;
4053;SDS011;2042;47.956;9.222;2023-08-30T14:23:22;2.57;;;2.37;;
4053;SDS011;2042;47.956;9.222;2023-08-30T14:25:58;3.33;;;3.03;;
4053;SDS011;2042;47.956;9.222;2023-08-30T14:28:26;2.40;;;2.30;;
4053;SDS011;2042;47.956;9.222;2023-08-30T14:30:52;2.43;;;2.27;;
4053;SDS011;2042;47.956;9.222;2023-08-30T14:33:18;3.03;;;2.73;;
4053;SDS011;2042;47.956;9.222;2023-08-30T14:35:45;2.50;;;2.30;;
4053;SDS011;2042;47.956;9.222;2023-08-30T14:38:11;2.93;;;2.20;;
4053;SDS011;2042;47.956;9.222;2023-08-30T14:40:36;2.87;;;2.67;;
4053;SDS011;2042;47.956;9.222;2023-08-30T14:43:05;2.70;;;2.50;;
4053;SDS011;2042;47.956;9.222;2023-08-30T14:45:31;2.50;;;2.30;;
4053;SDS011;2042;47.956;9.222;2023-08-30T14:47:57;2.63;;;2.43;;
4053;SDS011;2042;47.956;9.222;2023-08-30T14:50:23;2.57;;;2.37;;
4053;SDS011;2042;47.956;9.222;2023-08-30T14:52:49;2.40;;;2.13;;
4053;SDS011;2042;47.956;9.222;2023-08-30T14:55:16;2.60;;;2.40;;
4053;SDS011;2042;47.956;9.222;2023-08-30T14:57:42;2.70;;;2.50;;
4053;SDS011;2042;47.956;9.222;2023-08-30T15:00:08;2.60;;;2.33;;
4053;SDS011;2042;47.956;9.222;2023-08-30T15:02:34;2.73;;;2.53;;
4053;SDS011;2042;47.956;9.222;2023-08-30T15:04:59;2.73;;;2.40;;
4053;SDS011;2042;47.956;9.222;2023-08-30T15:07:25;3.10;;;2.80;;
4053;SDS011;2042;47.956;9.222;2023-08-30T15:09:51;2.43;;;2.23;;
4053;SDS011;2042;47.956;9.222;2023-08-30T15:12:16;2.20;;;2.00;;
4053;SDS011;2042;47.956;9.222;2023-08-30T15:14:42;2.90;;;2.70;;
4053;SDS011;2042;47.956;9.222;2023-08-30T15:17:08;2.30;;;2.10;;
4053;SDS011;2042;47.956;9.222;2023-08-30T15:19:35;3.93;;;2.10;;
4053;SDS011;2042;47.956;9.222;2023-08-30T15:22:01;2.90;;;2.70;;
4053;SDS011;2042;47.956;9.222;2023-08-30T15:24:27;2.83;;;2.63;;
4053;SDS011;2042;47.956;9.222;2023-08-30T15:26:53;3.10;;;2.90;;
4053;SDS011;2042;47.956;9.222;2023-08-30T15:29:19;4.07;;;2.90;;
4053;SDS011;2042;47.956;9.222;2023-08-30T15:31:44;3.70;;;3.40;;
4053;SDS011;2042;47.956;9.222;2023-08-30T15:34:15;3.40;;;3.10;;
4053;SDS011;2042;47.956;9.222;2023-08-30T15:41:33;3.27;;;3.07;;
4053;SDS011;2042;47.956;9.222;2023-08-30T15:43:59;3.77;;;3.47;;